Time;durP1;ratioP1;P1;durP2;ratioP2;P2;SDS_P1;SDS_P2;PMS_P1;PMS_P2;Temp;Humidity;BMP_temperature;BMP_pressure;BME280_temperature;BME280_humidity;BME280_pressure;Samples;Min_cycle;Max_cycle;Signal;HPM_P1;HPM_P2
2022/10/01 00:00:12;;;;;;;8.80;8.00;;;12.10;99.90;;;;;;4980859;28;89743;-33
2022/10/01 00:02:38;;;;;;;11.10;8.65;;;12.00;99.90;;;;;;4980919;28;90052;-31
2022/10/01 00:05:06;;;;;;;9.52;8.43;;;12.00;99.90;;;;;;4981499;28;90012;-30
2022/10/01 00:07:43;;;;;;;9.40;8.48;;;11.90;99.90;;;;;;4980733;28;90143;-30
2022/10/01 00:10:11;;;;;;;9.55;8.63;;;11.90;99.90;;;;;;4980015;28;90784;-32
2022/10/01 00:12:38;;;;;;;11.38;8.65;;;11.80;99.90;;;;;;4980740;28;90761;-30
2022/10/01 00:15:08;;;;;;;11.25;8.85;;;11.80;99.90;;;;;;4981354;28;90187;-32
2022/10/01 00:17:35;;;;;;;10.27;9.27;;;11.80;99.90;;;;;;4980741;28;90155;-33
2022/10/01 00:20:02;;;;;;;11.40;10.10;;;11.70;99.90;;;;;;4980878;28;88828;-30
2022/10/01 00:22:31;;;;;;;10.55;9.63;;;11.60;99.90;;;;;;4961653;28;89725;-32
2022/10/01 00:24:58;;;;;;;14.18;10.90;;;11.60;99.90;;;;;;4980426;28;88274;-30
2022/10/01 00:27:24;;;;;;;11.38;9.65;;;11.60;99.90;;;;;;4978950;28;90340;-33
2022/10/01 00:29:50;;;;;;;9.18;8.32;;;11.50;99.90;;;;;;4980618;28;89585;-32
2022/10/01 00:32:16;;;;;;;9.77;8.93;;;11.50;99.90;;;;;;4980113;28;89325;-31
2022/10/01 00:34:42;;;;;;;11.25;9.85;;;11.50;99.90;;;;;;4980296;28;88117;-33
2022/10/01 00:37:09;;;;;;;9.50;8.60;;;11.50;99.90;;;;;;4980178;28;90269;-30
2022/10/01 00:39:35;;;;;;;10.18;9.23;;;11.50;99.90;;;;;;4980290;28;89676;-28
2022/10/01 00:42:01;;;;;;;10.85;9.70;;;11.50;99.90;;;;;;4980873;28;88890;-30
2022/10/01 00:44:32;;;;;;;11.15;10.05;;;11.40;99.90;;;;;;4980088;28;89656;-31
2022/10/01 00:50:00;;;;;;;11.48;10.40;;;11.50;99.90;;;;;;4978524;28;88953;-30
2022/10/01 00:52:30;;;;;;;11.85;9.55;;;11.40;99.90;;;;;;4979979;28;89692;-29
2022/10/01 00:55:12;;;;;;;11.45;10.27;;;11.40;99.90;;;;;;4980330;28;88946;-33
2022/10/01 00:57:39;;;;;;;9.68;8.85;;;11.30;99.90;;;;;;4978906;28;90656;-34
2022/10/01 01:00:08;;;;;;;11.70;9.93;;;11.40;99.90;;;;;;4954055;28;90475;-32
2022/10/01 01:02:34;;;;;;;10.45;8.93;;;11.30;99.90;;;;;;4979981;28;91706;-30
2022/10/01 01:05:00;;;;;;;13.43;10.70;;;11.40;99.90;;;;;;4980344;28;89641;-32
2022/10/01 01:07:27;;;;;;;12.18;10.00;;;11.30;99.90;;;;;;4979198;28;88971;-34
2022/10/01 01:09:54;;;;;;;12.00;8.88;;;11.30;99.90;;;;;;4979583;28;89950;-29
2022/10/01 01:13:08;;;;;;;9.73;8.80;;;11.30;99.90;;;;;;4979383;28;89675;-30
2022/10/01 01:15:58;;;;;;;12.15;9.65;;;11.30;99.90;;;;;;4918020;28;88218;-32
2022/10/01 01:18:34;;;;;;;13.20;9.57;;;11.30;99.90;;;;;;4979020;28;90063;-29
2022/10/01 01:21:14;;;;;;;11.60;10.52;;;11.30;99.90;;;;;;4979910;28;88801;-30
2022/10/01 01:24:11;;;;;;;11.38;10.32;;;11.30;99.90;;;;;;4979235;28;89908;-31
2022/10/01 01:26:55;;;;;;;13.30;10.18;;;11.30;99.90;;;;;;4978954;28;89431;-31
2022/10/01 01:30:03;;;;;;;14.07;11.18;;;11.30;99.90;;;;;;4979156;28;90753;-31
2022/10/01 01:32:41;;;;;;;11.18;10.00;;;11.20;99.90;;;;;;4979309;28;89542;-28
2022/10/01 01:35:08;;;;;;;;;;;11.20;99.90;;;;;;4979606;28;89446;-34
2022/10/01 01:37:39;;;;;;;11.35;9.63;;;11.20;99.90;;;;;;4980155;28;87704;-30
2022/10/01 01:40:10;;;;;;;11.63;9.60;;;11.30;99.90;;;;;;4978907;28;90287;-32
2022/10/01 01:42:38;;;;;;;11.40;10.15;;;11.20;99.90;;;;;;4969987;28;89939;-30
2022/10/01 01:45:09;;;;;;;12.57;9.27;;;11.20;99.90;;;;;;4978655;28;89148;-31
2022/10/01 01:47:37;;;;;;;10.82;9.73;;;11.20;99.90;;;;;;4945697;28;89260;-29
2022/10/01 01:50:03;;;;;;;;;;;11.20;99.90;;;;;;4973140;28;91699;-30
2022/10/01 01:52:29;;;;;;;13.90;10.82;;;11.10;99.90;;;;;;4968209;28;91319;-33
2022/10/01 01:54:56;;;;;;;9.70;8.70;;;11.10;99.90;;;;;;4976405;28;89542;-30
2022/10/01 01:57:22;;;;;;;10.88;9.80;;;11.10;99.90;;;;;;4979431;28;89443;-29
2022/10/01 01:59:47;;;;;;;13.93;10.40;;;11.10;99.90;;;;;;4977218;28;90332;-31
2022/10/01 02:02:22;;;;;;;15.18;11.02;;;11.10;99.90;;;;;;4966214;28;90316;-33
2022/10/01 02:04:59;;;;;;;11.10;9.82;;;11.10;99.90;;;;;;4978658;28;89262;-31
2022/10/01 02:07:41;;;;;;;12.05;9.60;;;11.10;99.90;;;;;;4979532;28;88480;-31
2022/10/01 02:10:32;;;;;;;13.48;11.15;;;11.10;99.90;;;;;;4978738;28;89006;-30
2022/10/01 02:13:17;;;;;;;11.73;9.35;;;11.10;99.90;;;;;;4978214;28;89797;-30
2022/10/01 02:16:19;;;;;;;9.30;8.27;;;11.00;99.90;;;;;;4978972;28;89136;-29
2022/10/01 02:19:08;;;;;;;12.38;9.05;;;11.10;99.90;;;;;;4965499;28;89437;-31
2022/10/01 02:21:45;;;;;;;10.63;9.18;;;11.10;99.90;;;;;;4958477;28;91185;-30
2022/10/01 02:24:32;;;;;;;12.20;9.88;;;11.10;99.90;;;;;;4979297;28;89124;-30
2022/10/01 02:27:01;;;;;;;12.75;10.30;;;11.10;99.90;;;;;;4978265;28;89544;-33
2022/10/01 02:29:28;;;;;;;14.07;10.20;;;11.00;99.90;;;;;;4978246;28;89412;-31
2022/10/01 02:31:56;;;;;;;10.07;8.93;;;11.00;99.90;;;;;;4978313;28;89573;-32
2022/10/01 02:34:26;;;;;;;10.43;9.40;;;11.00;99.90;;;;;;4978805;28;89561;-31
2022/10/01 02:36:54;;;;;;;11.93;10.68;;;11.10;99.90;;;;;;4979385;28;89946;-31
2022/10/01 02:39:22;;;;;;;10.67;9.53;;;11.10;99.90;;;;;;4978411;28;90107;-30
2022/10/01 02:41:49;;;;;;;;;;;11.10;99.90;;;;;;4979645;28;89893;-31
2022/10/01 02:44:21;;;;;;;8.52;7.70;;;11.10;99.90;;;;;;4979377;28;90661;-30
2022/10/01 02:46:57;;;;;;;10.07;9.02;;;11.10;99.90;;;;;;4978734;28;90044;-30
2022/10/01 02:49:24;;;;;;;10.63;9.18;;;11.10;99.90;;;;;;4977957;28;88309;-29
2022/10/01 02:52:18;;;;;;;9.15;8.25;;;11.10;99.90;;;;;;4982352;28;90332;-30
2022/10/01 02:55:16;;;;;;;9.82;8.00;;;11.10;99.90;;;;;;4982239;28;89782;-32
2022/10/01 02:57:42;;;;;;;9.73;8.73;;;11.10;99.90;;;;;;4981551;28;90096;-31
2022/10/01 03:00:11;;;;;;;10.20;9.13;;;11.10;99.90;;;;;;4982094;28;88880;-30
2022/10/01 03:02:36;;;;;;;9.55;8.65;;;11.10;99.90;;;;;;4982156;28;90636;-31
2022/10/01 03:05:03;;;;;;;9.48;8.50;;;11.10;99.90;;;;;;4982564;28;89722;-29
2022/10/01 03:07:31;;;;;;;8.43;7.68;;;11.10;99.90;;;;;;4981503;28;89511;-33
2022/10/01 03:09:57;;;;;;;8.10;7.27;;;11.20;99.90;;;;;;4980890;28;90162;-33
2022/10/01 03:12:23;;;;;;;9.05;8.20;;;11.10;99.90;;;;;;4981871;28;90383;-32
2022/10/01 03:14:49;;;;;;;9.57;7.60;;;11.20;99.90;;;;;;4981388;28;89839;-31
2022/10/01 03:17:16;;;;;;;8.13;7.43;;;11.20;99.90;;;;;;4981461;28;89565;-30
2022/10/01 03:19:42;;;;;;;7.80;7.10;;;11.20;99.90;;;;;;4982607;28;89047;-30
2022/10/01 03:22:11;;;;;;;8.23;7.45;;;11.20;99.90;;;;;;4981194;28;90336;-32
2022/10/01 03:24:36;;;;;;;6.93;6.30;;;11.20;99.90;;;;;;4981298;28;89336;-29
2022/10/01 03:27:02;;;;;;;7.50;6.80;;;11.30;99.90;;;;;;4982138;28;90248;-29
2022/10/01 03:29:28;;;;;;;7.72;7.03;;;11.20;99.90;;;;;;4981588;28;88826;-33
2022/10/01 03:31:54;;;;;;;7.05;6.40;;;11.20;99.90;;;;;;4980094;28;91076;-33
2022/10/01 03:34:19;;;;;;;7.10;6.40;;;11.20;99.90;;;;;;4980602;28;91092;-29
2022/10/01 03:36:45;;;;;;;9.48;7.10;;;11.20;99.90;;;;;;4980707;28;90559;-34
2022/10/01 03:39:12;;;;;;;7.07;6.47;;;11.20;99.90;;;;;;4982110;28;89283;-35
2022/10/01 03:41:38;;;;;;;7.07;6.43;;;11.20;99.90;;;;;;4981230;28;90016;-34
2022/10/01 03:44:04;;;;;;;6.28;5.72;;;11.20;99.90;;;;;;4965779;28;89415;-30
2022/10/01 03:46:29;;;;;;;6.45;5.95;;;11.20;99.90;;;;;;4981420;28;89432;-30
2022/10/01 03:48:56;;;;;;;7.90;7.10;;;11.20;99.90;;;;;;4980818;28;89841;-32
2022/10/01 03:51:22;;;;;;;6.40;5.80;;;11.20;99.90;;;;;;4981746;28;90439;-30
2022/10/01 03:53:48;;;;;;;5.97;5.40;;;11.20;99.90;;;;;;4981307;28;91156;-30
2022/10/01 03:56:14;;;;;;;6.38;5.88;;;11.20;99.90;;;;;;4980355;28;89485;-30
2022/10/01 03:58:40;;;;;;;4.60;4.20;;;11.20;99.90;;;;;;4980932;28;90015;-30
2022/10/01 04:01:06;;;;;;;4.93;4.53;;;11.20;99.90;;;;;;4980203;28;90081;-30
2022/10/01 04:03:31;;;;;;;5.07;4.68;;;11.20;99.90;;;;;;4980727;28;89567;-34
2022/10/01 04:05:57;;;;;;;5.65;5.00;;;11.20;99.90;;;;;;4980931;28;89509;-32
2022/10/01 04:08:23;;;;;;;4.88;4.45;;;11.20;99.90;;;;;;4980721;28;89345;-33
2022/10/01 04:10:49;;;;;;;5.05;4.55;;;11.20;99.90;;;;;;4981367;28;89264;-33
2022/10/01 04:13:15;;;;;;;7.90;5.13;;;11.20;99.90;;;;;;4980693;28;89794;-32
2022/10/01 04:15:41;;;;;;;4.40;3.95;;;11.20;99.90;;;;;;4981191;28;89195;-33
2022/10/01 04:18:07;;;;;;;5.30;4.80;;;11.20;99.90;;;;;;4980923;28;89562;-30
2022/10/01 04:20:34;;;;;;;6.18;5.68;;;11.30;99.90;;;;;;4980226;28;90183;-30
2022/10/01 04:23:00;;;;;;;4.95;4.47;;;11.30;99.90;;;;;;4980568;28;90793;-28
2022/10/01 04:25:27;;;;;;;4.57;4.18;;;11.30;99.90;;;;;;4979979;28;90392;-30
2022/10/01 04:28:00;;;;;;;4.68;4.28;;;11.30;99.90;;;;;;4980692;28;88271;-31
2022/10/01 04:30:28;;;;;;;4.50;4.10;;;11.30;99.90;;;;;;4980462;28;91135;-30
2022/10/01 04:32:54;;;;;;;4.45;4.05;;;11.30;99.90;;;;;;4980498;28;90704;-31
2022/10/01 04:35:21;;;;;;;5.32;4.75;;;11.30;99.90;;;;;;4980192;28;89135;-31
2022/10/01 04:37:47;;;;;;;5.75;3.95;;;11.20;99.90;;;;;;4981236;28;88037;-32
2022/10/01 04:40:12;;;;;;;5.13;4.72;;;11.20;99.90;;;;;;4979662;28;90698;-31
2022/10/01 04:42:42;;;;;;;5.38;4.40;;;11.20;99.90;;;;;;4980927;28;90401;-30
2022/10/01 04:45:09;;;;;;;4.18;3.88;;;11.20;99.90;;;;;;4980632;28;90195;-32
2022/10/01 04:47:35;;;;;;;4.28;3.95;;;11.20;99.90;;;;;;4979845;28;89754;-32
2022/10/01 04:50:01;;;;;;;4.78;4.28;;;11.30;99.90;;;;;;4979933;28;90305;-30
2022/10/01 04:52:26;;;;;;;4.75;4.35;;;11.20;99.90;;;;;;4980164;28;89587;-31
2022/10/01 04:54:52;;;;;;;4.22;3.72;;;11.30;99.90;;;;;;4980484;28;89256;-31
2022/10/01 04:57:21;;;;;;;4.85;4.45;;;11.20;99.90;;;;;;4979988;28;88714;-31
2022/10/01 04:59:47;;;;;;;4.35;4.03;;;11.30;99.90;;;;;;4980214;28;90224;-30
2022/10/01 05:02:13;;;;;;;4.70;4.18;;;11.30;99.90;;;;;;4979566;28;89198;-31
2022/10/01 05:04:38;;;;;;;4.97;3.63;;;11.30;99.90;;;;;;4979889;28;88233;-33
2022/10/01 05:07:04;;;;;;;4.97;4.45;;;11.30;99.90;;;;;;4981453;28;89592;-30
2022/10/01 05:09:30;;;;;;;4.68;4.25;;;11.30;99.90;;;;;;4979870;28;90082;-31
2022/10/01 05:11:55;;;;;;;4.28;3.88;;;11.30;99.90;;;;;;4979501;28;90720;-31
2022/10/01 05:14:21;;;;;;;3.90;3.60;;;11.30;99.90;;;;;;4979095;28;91419;-32
2022/10/01 05:16:46;;;;;;;4.70;4.30;;;11.30;99.90;;;;;;4980197;28;88847;-29
2022/10/01 05:19:13;;;;;;;4.85;4.45;;;11.30;99.90;;;;;;4979885;28;92343;-30
2022/10/01 05:21:39;;;;;;;5.28;3.72;;;11.30;99.90;;;;;;4979661;28;89928;-30
2022/10/01 05:24:04;;;;;;;4.68;4.05;;;11.40;99.90;;;;;;4979953;28;89930;-32
2022/10/01 05:26:30;;;;;;;4.43;3.92;;;11.40;99.90;;;;;;4979354;28;88463;-29
2022/10/01 05:28:58;;;;;;;5.00;4.00;;;11.40;99.90;;;;;;4980058;28;89500;-31
2022/10/01 05:31:23;;;;;;;4.10;3.80;;;11.40;99.90;;;;;;4980170;28;89137;-29
2022/10/01 05:33:49;;;;;;;3.55;3.25;;;11.40;99.90;;;;;;4979484;28;88361;-31
2022/10/01 05:36:14;;;;;;;4.55;3.80;;;11.40;99.90;;;;;;4979111;28;89487;-29
2022/10/01 05:38:41;;;;;;;3.83;3.42;;;11.50;99.90;;;;;;4979826;28;90580;-30
2022/10/01 05:41:06;;;;;;;4.18;3.88;;;11.50;99.90;;;;;;4979074;28;89737;-32
2022/10/01 05:43:32;;;;;;;3.05;2.85;;;11.50;99.90;;;;;;4979807;28;89577;-33
2022/10/01 05:46:04;;;;;;;3.97;3.67;;;11.50;99.90;;;;;;4979886;28;88486;-32
2022/10/01 05:48:35;;;;;;;4.53;4.13;;;11.50;99.90;;;;;;4978312;28;89841;-32
2022/10/01 05:51:03;;;;;;;4.55;4.15;;;11.60;99.90;;;;;;4979692;28;90153;-32
2022/10/01 05:53:28;;;;;;;5.30;4.63;;;11.60;99.90;;;;;;4979091;28;89551;-29
2022/10/01 05:55:54;;;;;;;4.13;3.72;;;11.60;99.90;;;;;;4979863;28;88482;-30
2022/10/01 05:58:20;;;;;;;4.25;3.92;;;11.70;99.90;;;;;;4952166;28;89559;-30
2022/10/01 06:00:46;;;;;;;4.07;3.72;;;11.70;99.90;;;;;;4978308;28;90901;-31
2022/10/01 06:03:12;;;;;;;4.65;3.92;;;11.70;99.90;;;;;;4979478;28;90291;-31
2022/10/01 06:05:37;;;;;;;4.05;3.75;;;11.70;99.90;;;;;;4979210;28;89182;-30
2022/10/01 06:08:04;;;;;;;4.82;4.43;;;11.70;99.90;;;;;;4978970;28;90808;-30
2022/10/01 06:10:30;;;;;;;4.05;3.75;;;11.70;99.90;;;;;;4978791;28;89791;-30
2022/10/01 06:13:00;;;;;;;5.80;4.82;;;11.70;99.90;;;;;;4978757;28;90167;-30
2022/10/01 06:15:26;;;;;;;8.00;4.88;;;11.70;99.90;;;;;;4979024;28;89278;-32
2022/10/01 06:17:52;;;;;;;5.60;5.10;;;11.80;99.90;;;;;;4979426;28;90245;-31
2022/10/01 06:20:18;;;;;;;4.57;4.28;;;11.80;99.90;;;;;;4979158;28;89971;-33
2022/10/01 06:22:51;;;;;;;4.82;4.45;;;11.80;99.90;;;;;;4978844;28;89680;-30
2022/10/01 06:25:17;;;;;;;5.22;4.53;;;11.80;99.90;;;;;;4980580;28;90033;-31
2022/10/01 06:27:42;;;;;;;5.30;4.80;;;11.80;99.90;;;;;;4982351;28;88979;-31
2022/10/01 06:30:09;;;;;;;5.80;5.30;;;11.90;99.90;;;;;;4982331;28;90984;-30
2022/10/01 06:32:35;;;;;;;5.97;5.38;;;11.90;99.90;;;;;;4982213;28;90379;-31
2022/10/01 06:35:01;;;;;;;6.57;5.93;;;11.90;99.90;;;;;;4982726;28;88598;-32
2022/10/01 06:37:27;;;;;;;6.28;4.85;;;11.90;99.90;;;;;;4980823;28;89927;-29
2022/10/01 06:39:53;;;;;;;6.50;5.90;;;12.00;99.90;;;;;;4981853;28;89742;-32
2022/10/01 06:42:18;;;;;;;6.90;6.32;;;12.00;99.90;;;;;;4982593;28;90186;-32
2022/10/01 06:44:44;;;;;;;5.95;5.35;;;12.00;99.90;;;;;;4979257;28;88913;-32
2022/10/01 06:47:09;;;;;;;7.38;6.30;;;12.10;99.90;;;;;;4976010;28;90089;-33
2022/10/01 06:49:35;;;;;;;5.97;5.47;;;12.10;99.90;;;;;;4965211;28;90438;-31
2022/10/01 06:54:45;;;;;;;6.95;6.35;;;12.10;99.90;;;;;;4982405;28;88032;-29
2022/10/01 06:57:10;;;;;;;7.63;6.93;;;12.20;99.90;;;;;;4982248;28;90896;-30
2022/10/01 06:59:36;;;;;;;6.55;5.57;;;12.30;99.90;;;;;;4981855;28;89306;-29
2022/10/01 07:02:03;;;;;;;8.20;5.93;;;12.30;99.90;;;;;;4981894;28;90171;-33
2022/10/01 07:04:28;;;;;;;10.35;7.28;;;12.30;99.90;;;;;;4981547;28;88781;-32
2022/10/01 07:06:55;;;;;;;8.82;6.30;;;12.30;99.90;;;;;;4982181;28;90304;-31
2022/10/01 07:09:24;;;;;;;7.32;6.72;;;12.40;99.90;;;;;;4980941;28;89708;-31
2022/10/01 07:11:50;;;;;;;8.18;7.47;;;12.40;99.90;;;;;;4981100;28;89098;-33
2022/10/01 07:14:16;;;;;;;7.50;6.80;;;12.50;99.90;;;;;;4979593;28;89776;-30
2022/10/01 07:16:42;;;;;;;7.43;6.68;;;12.50;99.90;;;;;;4972403;28;90449;-31
2022/10/01 07:19:07;;;;;;;8.50;7.28;;;12.60;99.90;;;;;;4975438;28;89614;-32
2022/10/01 07:21:33;;;;;;;7.45;6.78;;;12.70;99.90;;;;;;4971815;28;88584;-30
2022/10/01 07:23:58;;;;;;;10.68;7.32;;;12.70;99.90;;;;;;4975333;28;89567;-29
2022/10/01 07:26:24;;;;;;;7.75;7.03;;;12.80;99.90;;;;;;4977519;28;90695;-31
2022/10/01 07:28:49;;;;;;;7.90;7.20;;;12.80;99.90;;;;;;4960970;28;89460;-32
2022/10/01 07:31:15;;;;;;;7.80;7.18;;;12.80;99.90;;;;;;4976289;28;89669;-31
2022/10/01 07:33:41;;;;;;;8.13;7.35;;;12.90;99.90;;;;;;4975060;28;90417;-31
2022/10/01 07:36:09;;;;;;;11.90;8.82;;;12.90;99.90;;;;;;4958442;28;90987;-32
2022/10/01 07:38:34;;;;;;;;;;;12.90;99.90;;;;;;4959951;28;90871;-30
2022/10/01 07:41:02;;;;;;;10.48;7.70;;;12.90;99.90;;;;;;4961070;28;90183;-31
2022/10/01 07:43:29;;;;;;;9.82;8.10;;;12.90;99.90;;;;;;4959857;28;89814;-29
2022/10/01 07:45:56;;;;;;;9.18;8.27;;;12.90;99.90;;;;;;4958507;28;90323;-33
2022/10/01 07:48:23;;;;;;;9.23;7.95;;;12.90;99.90;;;;;;4963265;28;90498;-32
2022/10/01 07:50:49;;;;;;;12.50;7.75;;;12.90;99.90;;;;;;4973089;28;90061;-31
2022/10/01 07:53:16;;;;;;;11.38;7.78;;;12.90;99.90;;;;;;4978883;28;87572;-29
2022/10/01 07:55:43;;;;;;;10.63;8.40;;;12.90;99.90;;;;;;4979243;28;90336;-32
2022/10/01 07:58:10;;;;;;;13.45;8.48;;;12.90;99.90;;;;;;4973251;28;89749;-31
2022/10/01 08:00:37;;;;;;;8.77;7.93;;;13.00;99.90;;;;;;4960092;28;89485;-29
2022/10/01 08:03:02;;;;;;;14.45;9.13;;;13.10;99.90;;;;;;4978368;28;88283;-31
2022/10/01 08:05:31;;;;;;;11.35;8.43;;;13.20;99.90;;;;;;4978066;28;89866;-31
2022/10/01 08:08:04;;;;;;;9.43;8.50;;;13.20;99.90;;;;;;4977749;28;90450;-32
2022/10/01 08:10:30;;;;;;;9.05;8.15;;;13.30;99.90;;;;;;4979185;28;89570;-32
2022/10/01 08:13:00;;;;;;;9.73;7.85;;;13.40;99.90;;;;;;4978713;28;87566;-34
2022/10/01 08:15:27;;;;;;;9.07;8.27;;;13.60;99.90;;;;;;4978030;28;91368;-31
2022/10/01 08:17:53;;;;;;;8.85;8.00;;;13.80;99.90;;;;;;4977848;28;89775;-32
2022/10/01 08:20:20;;;;;;;10.98;8.65;;;13.90;99.90;;;;;;4979293;28;91200;-32
2022/10/01 08:22:46;;;;;;;10.63;8.20;;;14.00;99.90;;;;;;4978775;28;89181;-32
2022/10/01 08:25:11;;;;;;;9.40;6.88;;;14.10;99.90;;;;;;4978851;28;90819;-34
2022/10/01 08:27:37;;;;;;;8.57;6.80;;;14.10;99.90;;;;;;4977913;28;90677;-33
2022/10/01 08:30:03;;;;;;;8.27;7.43;;;14.20;99.90;;;;;;4977698;28;89005;-30
2022/10/01 08:32:30;;;;;;;13.73;7.28;;;14.20;99.90;;;;;;4979139;28;89542;-30
2022/10/01 08:34:57;;;;;;;9.32;8.05;;;14.20;99.90;;;;;;4978363;28;89887;-32
2022/10/01 08:37:27;;;;;;;12.10;7.25;;;14.30;99.90;;;;;;4977986;28;89628;-30
2022/10/01 08:39:55;;;;;;;8.63;7.43;;;14.30;99.90;;;;;;4977693;28;89737;-32
2022/10/01 08:42:32;;;;;;;7.55;6.75;;;14.40;99.90;;;;;;4978017;28;88781;-30
2022/10/01 08:45:03;;;;;;;7.10;6.50;;;14.40;99.90;;;;;;4978789;28;89957;-31
2022/10/01 08:47:34;;;;;;;8.50;7.13;;;14.50;99.90;;;;;;4977017;28;89749;-29
2022/10/01 08:50:11;;;;;;;10.60;8.00;;;14.60;99.90;;;;;;4977803;28;89103;-31
2022/10/01 08:52:46;;;;;;;8.00;6.65;;;14.70;99.90;;;;;;4977611;28;89395;-31
2022/10/01 08:55:25;;;;;;;7.65;6.32;;;14.80;99.90;;;;;;4978500;28;90318;-30
2022/10/01 08:57:57;;;;;;;;;;;14.90;99.90;;;;;;4978162;28;89620;-32
2022/10/01 09:00:22;;;;;;;6.35;5.70;;;15.10;99.90;;;;;;4979205;28;89275;-32
2022/10/01 09:02:49;;;;;;;8.55;4.90;;;15.20;99.90;;;;;;4978058;28;90274;-31
2022/10/01 09:05:28;;;;;;;11.65;5.60;;;15.20;99.90;;;;;;4976854;28;89060;-32
2022/10/01 09:08:18;;;;;;;9.20;5.22;;;15.30;99.90;;;;;;4977336;28;89922;-31
2022/10/01 09:10:52;;;;;;;7.43;4.57;;;15.50;99.90;;;;;;4978313;28;90096;-30
2022/10/01 09:13:30;;;;;;;12.93;4.82;;;15.60;99.90;;;;;;4978572;28;88912;-33
2022/10/01 09:16:08;;;;;;;5.45;3.70;;;15.60;99.90;;;;;;4978064;28;92014;-29
2022/10/01 09:19:00;;;;;;;6.93;4.32;;;15.60;99.90;;;;;;4976826;28;91037;-33
2022/10/01 09:21:46;;;;;;;8.57;3.88;;;15.70;99.90;;;;;;4977491;28;90385;-33
2022/10/01 09:24:23;;;;;;;9.20;4.28;;;15.80;99.90;;;;;;4978151;28;90005;-35
2022/10/01 09:26:50;;;;;;;7.45;3.70;;;15.90;99.90;;;;;;4976994;28;90391;-32
2022/10/01 09:29:35;;;;;;;4.45;2.83;;;15.80;99.90;;;;;;4977049;28;89696;-32
2022/10/01 09:32:04;;;;;;;5.38;3.33;;;15.70;99.90;;;;;;4977553;28;89648;-33
2022/10/01 09:34:36;;;;;;;3.78;3.38;;;15.60;99.90;;;;;;4977776;28;89619;-33
2022/10/01 09:37:43;;;;;;;7.32;3.05;;;15.50;99.90;;;;;;4977631;28;90261;-29
2022/10/01 09:40:46;;;;;;;7.28;3.42;;;15.50;99.90;;;;;;4977300;28;88525;-31
2022/10/01 09:43:13;;;;;;;8.25;2.75;;;15.50;99.90;;;;;;4977339;28;90099;-31
2022/10/01 09:45:39;;;;;;;8.27;3.70;;;15.40;99.90;;;;;;4976828;28;88990;-30
2022/10/01 09:48:18;;;;;;;8.82;3.25;;;15.50;99.90;;;;;;4976957;28;90460;-31
2022/10/01 09:50:54;;;;;;;3.67;1.90;;;15.70;99.90;;;;;;4977347;28;89795;-34
2022/10/01 09:53:24;;;;;;;4.40;2.13;;;15.80;99.90;;;;;;4977740;28;89993;-30
2022/10/01 09:55:54;;;;;;;5.70;3.38;;;16.00;99.90;;;;;;4977597;28;89997;-31
2022/10/01 09:58:23;;;;;;;3.88;2.20;;;16.10;99.90;;;;;;4977345;28;90263;-33
2022/10/01 10:00:51;;;;;;;4.25;2.25;;;16.20;99.90;;;;;;4976383;28;89755;-32
2022/10/01 10:03:30;;;;;;;5.30;1.50;;;16.20;99.90;;;;;;4976838;28;89180;-34
2022/10/01 10:06:00;;;;;;;2.67;1.88;;;16.40;99.90;;;;;;4976853;28;88629;-32
2022/10/01 10:08:30;;;;;;;3.78;2.42;;;16.50;99.90;;;;;;4976537;28;90641;-33
2022/10/01 10:11:07;;;;;;;4.25;2.45;;;16.70;99.90;;;;;;4976703;28;90702;-29
2022/10/01 10:13:39;;;;;;;1.92;1.65;;;16.70;99.90;;;;;;4976193;28;89339;-32
2022/10/01 10:16:35;;;;;;;2.92;1.70;;;16.60;99.90;;;;;;4977086;28;88476;-30
2022/10/01 10:19:05;;;;;;;4.75;1.83;;;16.30;99.90;;;;;;4967478;28;90254;-34
2022/10/01 10:21:35;;;;;;;3.03;1.25;;;16.00;99.90;;;;;;4976351;28;89710;-32
2022/10/01 10:24:18;;;;;;;2.72;1.58;;;15.80;99.90;;;;;;4976949;28;89370;-30
2022/10/01 10:26:55;;;;;;;4.65;2.22;;;15.50;99.90;;;;;;4977554;28;88585;-30
2022/10/01 10:29:27;;;;;;;4.05;1.92;;;15.10;99.90;;;;;;4977416;28;89478;-29
2022/10/01 10:31:54;;;;;;;4.43;1.67;;;14.90;99.90;;;;;;4976213;28;89761;-33
2022/10/01 10:34:38;;;;;;;2.65;1.27;;;14.70;99.90;;;;;;4976471;28;89268;-31
2022/10/01 10:37:10;;;;;;;4.13;2.03;;;14.60;99.90;;;;;;4975848;28;88633;-31
2022/10/01 10:39:39;;;;;;;3.00;1.58;;;14.60;99.90;;;;;;4976647;28;90282;-32
2022/10/01 10:42:06;;;;;;;3.42;2.65;;;14.60;99.90;;;;;;4976360;28;89878;-32
2022/10/01 10:44:40;;;;;;;2.75;1.40;;;14.80;99.90;;;;;;4976021;28;89601;-31
2022/10/01 10:47:10;;;;;;;4.22;1.00;;;15.00;99.90;;;;;;4976129;28;89893;-31
2022/10/01 10:50:02;;;;;;;1.60;1.33;;;15.10;99.90;;;;;;4970563;28;90362;-30
2022/10/01 10:52:35;;;;;;;3.97;1.50;;;15.10;99.90;;;;;;4978194;28;89698;-33
2022/10/01 10:55:22;;;;;;;2.72;1.70;;;15.10;99.90;;;;;;4977704;28;89614;-31
2022/10/01 10:57:48;;;;;;;1.60;1.27;;;15.10;99.90;;;;;;4961300;28;89654;-31
2022/10/01 11:00:16;;;;;;;3.03;1.23;;;15.10;99.90;;;;;;4957189;28;90599;-33
2022/10/01 11:02:56;;;;;;;4.53;2.28;;;15.10;99.90;;;;;;4956620;28;91542;-33
2022/10/01 11:05:30;;;;;;;8.32;2.92;;;15.00;99.90;;;;;;4956890;28;90561;-31
2022/10/01 11:08:03;;;;;;;11.00;2.50;;;14.90;99.90;;;;;;4955858;28;88234;-32
2022/10/01 11:10:35;;;;;;;5.95;1.73;;;14.70;99.90;;;;;;4956999;28;89272;-33
2022/10/01 11:13:12;;;;;;;6.32;1.02;;;14.20;99.90;;;;;;4959889;28;89833;-31
2022/10/01 11:15:49;;;;;;;2.87;0.90;;;13.70;99.90;;;;;;4959934;28;89935;-31
2022/10/01 11:18:33;;;;;;;1.20;0.82;;;13.40;99.90;;;;;;4959101;28;90155;-31
2022/10/01 11:21:10;;;;;;;2.35;0.82;;;13.10;99.90;;;;;;4959158;28;90324;-31
2022/10/01 11:23:51;;;;;;;3.87;1.00;;;13.00;99.90;;;;;;4958862;28;89115;-32
2022/10/01 11:26:47;;;;;;;2.72;0.90;;;12.90;99.90;;;;;;4946697;28;89632;-31
2022/10/01 11:29:33;;;;;;;2.33;1.13;;;12.80;99.90;;;;;;4958906;28;89328;-32
2022/10/01 11:32:22;;;;;;;1.52;0.93;;;12.80;99.90;;;;;;4945422;28;91866;-30
2022/10/01 11:35:25;;;;;;;1.02;0.88;;;12.80;99.90;;;;;;4959504;28;89733;-30
2022/10/01 11:38:25;;;;;;;1.35;1.10;;;12.90;99.90;;;;;;4958673;28;89295;-32
2022/10/01 11:41:02;;;;;;;2.17;0.98;;;13.00;99.90;;;;;;4959349;28;88453;-33
2022/10/01 11:43:43;;;;;;;2.92;1.00;;;13.10;99.90;;;;;;4958222;28;90884;-32
2022/10/01 11:46:18;;;;;;;1.77;0.88;;;13.10;99.90;;;;;;4959309;28;89832;-31
2022/10/01 11:48:51;;;;;;;3.72;0.90;;;13.20;99.90;;;;;;4958466;28;89853;-34
2022/10/01 11:51:21;;;;;;;1.20;0.90;;;13.30;99.90;;;;;;4977474;28;88096;-30
2022/10/01 11:53:53;;;;;;;1.50;1.25;;;13.50;99.90;;;;;;4978709;28;90080;-31
2022/10/01 11:59:30;;;;;;;3.17;1.60;;;13.80;99.90;;;;;;4979033;28;90752;-31
2022/10/01 12:01:55;;;;;;;;;;;13.90;99.90;;;;;;4979718;28;88843;-33
2022/10/01 12:04:36;;;;;;;6.35;2.05;;;14.10;99.90;;;;;;4979566;28;90627;-32
2022/10/01 12:07:14;;;;;;;6.13;2.05;;;14.30;99.90;;;;;;4953823;28;89518;-32
2022/10/01 12:09:57;;;;;;;6.60;2.83;;;14.50;99.90;;;;;;4978272;28;90990;-32
2022/10/01 12:12:35;;;;;;;3.22;1.80;;;14.80;99.90;;;;;;4978900;28;88473;-31
2022/10/01 12:15:20;;;;;;;4.88;2.08;;;14.90;99.90;;;;;;4978801;28;90214;-33
2022/10/01 12:17:48;;;;;;;13.13;3.47;;;15.10;99.90;;;;;;4978207;28;89083;-30
2022/10/01 12:20:26;;;;;;;8.60;3.65;;;15.20;99.90;;;;;;4972227;28;89367;-31
2022/10/01 12:22:53;;;;;;;2.90;1.73;;;15.30;99.90;;;;;;4957714;28;90351;-33
2022/10/01 12:25:25;;;;;;;8.87;2.80;;;15.40;99.90;;;;;;4958865;28;90296;-32
2022/10/01 12:28:09;;;;;;;6.32;2.33;;;15.50;99.90;;;;;;4957915;28;89681;-34
2022/10/01 12:31:06;;;;;;;6.97;3.00;;;15.60;99.90;;;;;;4958210;28;90268;-31
2022/10/01 12:33:38;;;;;;;6.10;3.03;;;15.80;99.90;;;;;;4954045;28;88550;-33
2022/10/01 12:36:38;;;;;;;5.82;3.10;;;15.90;99.90;;;;;;4959163;28;90495;-33
2022/10/01 12:39:31;;;;;;;6.50;2.25;;;16.00;99.90;;;;;;4957761;28;88775;-33
2022/10/01 12:42:32;;;;;;;11.15;3.10;;;15.80;99.90;;;;;;4958159;28;88946;-32
2022/10/01 12:45:34;;;;;;;3.95;2.25;;;15.60;99.90;;;;;;4934426;28;88838;-30
2022/10/01 12:48:31;;;;;;;11.35;3.25;;;15.50;99.90;;;;;;4995471;22;90890;-30
2022/10/01 12:51:27;;;;;;;4.55;2.42;;;15.40;99.90;;;;;;4972777;28;90707;-31
2022/10/01 12:53:59;;;;;;;8.82;3.15;;;15.30;99.90;;;;;;4977350;28;90027;-30
2022/10/01 12:56:35;;;;;;;5.82;2.08;;;15.10;99.90;;;;;;4978040;28;88015;-33
2022/10/01 12:59:07;;;;;;;11.30;3.13;;;15.10;99.90;;;;;;4999130;28;89915;-32
2022/10/01 13:02:06;;;;;;;6.65;2.33;;;15.10;99.90;;;;;;4996855;28;89807;-32
2022/10/01 13:05:12;;;;;;;5.32;1.77;;;15.00;99.90;;;;;;4963747;28;90422;-31
2022/10/01 13:07:56;;;;;;;6.82;2.45;;;15.10;99.90;;;;;;4997058;28;89387;-32
2022/10/01 13:10:47;;;;;;;12.48;3.40;;;15.30;99.90;;;;;;4998233;28;90284;-30
2022/10/01 13:13:34;;;;;;;9.93;2.75;;;15.50;99.90;;;;;;4997036;28;89339;-30
2022/10/01 13:16:08;;;;;;;3.17;2.85;;;15.70;99.90;;;;;;4997686;28;90353;-33
2022/10/01 13:18:55;;;;;;;9.77;4.55;;;15.80;99.90;;;;;;4996165;28;90687;-32